FARO weather

Rooiberg Airport
Rooiberg, Limpopo, South Africa

Public forecast

Using degrees Celsius for public forecast. Weather courtesy of forecast.io.

METAR (pilot weather report)

Report is more than 6 hours old.

Closest report is Pilanesberg International Airport, 45.9 nm (85.0 km) SW. Retrieved 2019/05/22 02:00 UTC (17 hours ago):

FAPN 220200Z AUTO 27001KT //// // ////// 08/05 Q1023

TAF (pilot weather forecast)

Forecast is more than 12 hours old.

Closest forecast is Pilanesberg International Airport, 45.9 nm (85.0 km) SW. Retrieved 2017/05/23 04:01 UTC (2 years ago):

TAF FAPN 230300Z 2304/2315 VRB02KT CAVOK TX25/2312ZTN03/2304Z